Time;durP1;ratioP1;P1;durP2;ratioP2;P2;SDS_P1;SDS_P2;PMS_P1;PMS_P2;Temp;Humidity;BMP_temperature;BMP_pressure;BME280_temperature;BME280_humidity;BME280_pressure;Samples;Min_cycle;Max_cycle;Signal;HPM_P1;HPM_P2
2023/11/22 05:31:18;;;;;;;0.10;0.10;;;11.20;82.50;;;;;;5552028;23;20041;-83
2023/11/22 05:33:43;;;;;;;0.10;0.10;;;11.20;82.50;;;;;;5015951;28;20025;-84
2023/11/22 05:36:11;;;;;;;0.10;0.10;;;11.20;82.50;;;;;;5018608;28;20022;-84
2023/11/22 05:38:37;;;;;;;0.10;0.10;;;11.20;82.20;;;;;;5018664;28;20026;-84
2023/11/22 05:41:03;;;;;;;0.10;0.10;;;11.20;82.40;;;;;;5018271;28;20022;-79
2023/11/22 05:43:29;;;;;;;0.10;0.10;;;11.20;82.40;;;;;;5017835;28;20124;-79
2023/11/22 05:45:55;;;;;;;0.10;0.10;;;11.20;81.90;;;;;;5000615;28;20026;-80
2023/11/22 05:48:21;;;;;;;0.10;0.10;;;11.20;82.30;;;;;;5018088;28;20395;-81
2023/11/22 05:50:48;;;;;;;0.10;0.10;;;11.20;81.80;;;;;;5018588;28;20469;-79
2023/11/22 05:53:19;;;;;;;0.10;0.10;;;11.20;82.10;;;;;;5000822;28;20080;-78
2023/11/22 05:55:47;;;;;;;0.10;0.10;;;11.20;81.60;;;;;;5017914;28;20010;-79
2023/11/22 05:58:16;;;;;;;0.10;0.10;;;11.20;82.00;;;;;;5018341;28;20076;-79
2023/11/22 06:00:45;;;;;;;0.10;0.10;;;11.20;82.00;;;;;;5016771;28;20018;-80
2023/11/22 06:03:11;;;;;;;0.10;0.10;;;11.20;81.70;;;;;;5018088;28;20025;-77
2023/11/22 06:05:37;;;;;;;0.10;0.10;;;11.20;81.70;;;;;;5017557;28;20026;-80
2023/11/22 06:08:02;;;;;;;0.10;0.10;;;11.20;81.60;;;;;;5018541;28;20034;-83
2023/11/22 06:10:28;;;;;;;0.10;0.10;;;11.10;81.70;;;;;;5000718;28;20014;-87
2023/11/22 06:12:54;;;;;;;0.10;0.10;;;11.20;81.50;;;;;;5017333;28;20525;-82
2023/11/22 06:15:21;;;;;;;0.10;0.10;;;11.10;81.30;;;;;;5011221;28;20513;-88
2023/11/22 06:17:48;;;;;;;0.30;0.10;;;11.20;81.40;;;;;;5017767;28;20057;-79
2023/11/22 06:20:14;;;;;;;0.10;0.10;;;11.20;81.60;;;;;;4999660;28;20032;-79
2023/11/22 06:22:42;;;;;;;0.10;0.10;;;11.20;81.50;;;;;;4999445;28;20029;-79
2023/11/22 06:25:12;;;;;;;0.10;0.10;;;11.20;81.50;;;;;;5000605;28;20084;-79
2023/11/22 06:27:38;;;;;;;0.10;0.10;;;11.20;81.50;;;;;;5016866;28;20030;-79
2023/11/22 06:30:06;;;;;;;0.10;0.10;;;11.10;81.40;;;;;;5007622;28;20505;-90
2023/11/22 06:32:31;;;;;;;0.10;0.10;;;11.10;81.60;;;;;;4998771;28;20045;-90
2023/11/22 06:34:57;;;;;;;0.08;0.08;;;10.90;81.60;;;;;;4991759;28;20023;-87
2023/11/22 06:37:23;;;;;;;0.10;0.10;;;10.90;81.70;;;;;;4989886;28;20041;-84
2023/11/22 06:39:48;;;;;;;0.10;0.10;;;10.80;81.70;;;;;;5016914;28;20026;-84
2023/11/22 06:42:14;;;;;;;0.10;0.10;;;10.90;81.70;;;;;;4996308;28;20079;-81
2023/11/22 06:44:40;;;;;;;0.10;0.10;;;10.90;81.60;;;;;;5000777;28;20026;-82
2023/11/22 06:47:07;;;;;;;0.10;0.10;;;10.80;81.70;;;;;;5014863;28;20045;-82
2023/11/22 06:49:33;;;;;;;0.10;0.10;;;10.80;81.80;;;;;;5016604;28;20487;-82
2023/11/22 06:51:59;;;;;;;0.10;0.10;;;10.90;81.70;;;;;;5017266;28;20475;-82
2023/11/22 06:54:25;;;;;;;0.10;0.10;;;10.90;81.70;;;;;;5016730;28;20418;-81
2023/11/22 06:56:51;;;;;;;0.05;0.05;;;10.80;81.60;;;;;;5016980;28;20030;-81
2023/11/22 06:59:17;;;;;;;0.10;0.10;;;10.80;81.90;;;;;;5017236;28;20053;-81
2023/11/22 07:01:43;;;;;;;0.10;0.10;;;10.80;81.70;;;;;;4997723;28;20060;-81
2023/11/22 07:04:09;;;;;;;0.10;0.10;;;10.70;81.90;;;;;;5017183;28;20025;-81
2023/11/22 07:06:37;;;;;;;0.03;0.03;;;10.70;81.90;;;;;;5017228;28;20463;-81
2023/11/22 07:09:03;;;;;;;0.10;0.10;;;10.70;82.00;;;;;;5017408;28;20050;-81
2023/11/22 07:11:30;;;;;;;0.10;0.10;;;10.70;82.00;;;;;;4999265;28;20034;-81
2023/11/22 07:13:57;;;;;;;0.10;0.10;;;10.70;81.80;;;;;;5014287;28;20053;-81
2023/11/22 07:16:24;;;;;;;0.10;0.10;;;10.70;81.90;;;;;;4999744;28;20030;-81
2023/11/22 07:18:50;;;;;;;0.10;0.10;;;10.70;82.00;;;;;;4979627;28;20529;-81
2023/11/22 07:21:16;;;;;;;0.10;0.10;;;10.70;82.10;;;;;;4996683;28;20022;-81
2023/11/22 07:23:45;;;;;;;0.10;0.10;;;10.70;82.00;;;;;;4996885;28;20474;-80
2023/11/22 07:26:10;;;;;;;0.10;0.10;;;10.70;82.10;;;;;;4995997;28;20124;-81
2023/11/22 07:28:36;;;;;;;0.10;0.10;;;10.70;81.70;;;;;;4995173;28;20035;-81
2023/11/22 07:31:05;;;;;;;0.10;0.10;;;10.70;81.70;;;;;;5013517;28;20099;-81
2023/11/22 07:33:31;;;;;;;0.10;0.10;;;10.60;81.90;;;;;;5013266;28;20166;-81
2023/11/22 07:35:58;;;;;;;0.10;0.10;;;10.50;82.30;;;;;;5016633;28;20018;-81
2023/11/22 07:38:24;;;;;;;0.10;0.10;;;10.50;82.10;;;;;;5016212;28;20437;-81
2023/11/22 07:40:51;;;;;;;0.10;0.10;;;10.50;82.20;;;;;;5016199;28;20117;-81
2023/11/22 07:43:16;;;;;;;0.10;0.10;;;10.60;82.30;;;;;;4998936;28;20087;-81
2023/11/22 07:45:43;;;;;;;0.10;0.10;;;10.60;82.40;;;;;;5016753;28;20029;-80
2023/11/22 07:48:11;;;;;;;0.10;0.10;;;10.70;82.30;;;;;;5016013;28;20057;-81
2023/11/22 07:50:39;;;;;;;0.10;0.10;;;10.60;82.00;;;;;;5035501;28;20120;-80
2023/11/22 07:53:05;;;;;;;0.10;0.10;;;10.50;82.20;;;;;;5017984;28;20079;-81
2023/11/22 07:55:31;;;;;;;0.10;0.10;;;10.60;82.20;;;;;;5000758;28;20026;-81
2023/11/22 07:57:56;;;;;;;0.10;0.10;;;10.60;82.30;;;;;;4999874;28;20030;-81
2023/11/22 08:00:23;;;;;;;0.10;0.10;;;10.60;82.20;;;;;;4980534;28;20122;-81
2023/11/22 08:02:49;;;;;;;0.10;0.10;;;10.60;82.30;;;;;;5013033;28;20066;-80
2023/11/22 08:05:16;;;;;;;0.10;0.10;;;10.70;82.30;;;;;;5005561;28;20121;-81
2023/11/22 08:07:44;;;;;;;0.10;0.10;;;10.70;82.30;;;;;;5039359;28;20498;-81
2023/11/22 08:10:17;;;;;;;0.10;0.10;;;10.70;82.00;;;;;;5036405;28;20029;-80
2023/11/22 08:12:44;;;;;;;0.10;0.10;;;10.70;82.10;;;;;;5020265;28;20030;-80
2023/11/22 08:15:12;;;;;;;0.10;0.10;;;10.80;82.00;;;;;;5002220;28;20022;-81
2023/11/22 08:17:38;;;;;;;0.10;0.10;;;10.70;81.90;;;;;;5018942;28;20026;-81
2023/11/22 08:20:05;;;;;;;0.10;0.10;;;10.70;81.90;;;;;;5000324;28;20030;-81
2023/11/22 08:22:35;;;;;;;0.10;0.10;;;10.70;81.90;;;;;;5005956;28;20373;-80
2023/11/22 08:25:03;;;;;;;0.17;0.17;;;10.80;81.80;;;;;;5019754;28;20029;-81
2023/11/22 08:27:28;;;;;;;0.10;0.10;;;10.80;81.90;;;;;;5018785;28;20034;-81
2023/11/22 08:29:54;;;;;;;0.10;0.10;;;10.90;81.70;;;;;;5019940;28;20022;-78
2023/11/22 08:32:23;;;;;;;0.05;0.05;;;10.90;81.50;;;;;;5010612;28;20057;-80
2023/11/22 08:34:49;;;;;;;0.10;0.10;;;11.00;81.50;;;;;;4983308;28;20070;-80
2023/11/22 08:37:15;;;;;;;0.10;0.10;;;11.00;81.40;;;;;;5010139;28;20481;-80
2023/11/22 08:39:41;;;;;;;0.10;0.10;;;11.00;81.30;;;;;;5014385;28;20116;-80
2023/11/22 08:42:09;;;;;;;0.10;0.10;;;11.10;81.40;;;;;;5016768;28;20026;-80
2023/11/22 08:44:36;;;;;;;0.10;0.10;;;11.20;81.30;;;;;;5019794;28;20442;-80
2023/11/22 08:47:03;;;;;;;0.10;0.10;;;11.30;80.80;;;;;;4998476;28;20045;-80
2023/11/22 08:49:28;;;;;;;0.10;0.10;;;11.20;80.80;;;;;;4999912;28;20022;-80
2023/11/22 08:51:54;;;;;;;0.10;0.10;;;11.20;81.10;;;;;;5006277;28;20033;-80
2023/11/22 08:54:20;;;;;;;0.10;0.10;;;11.20;81.00;;;;;;5002118;28;20026;-80
2023/11/22 08:56:46;;;;;;;0.10;0.10;;;11.10;80.80;;;;;;5019577;28;20040;-80
2023/11/22 08:59:12;;;;;;;0.10;0.10;;;11.20;81.10;;;;;;5001915;28;20022;-80
2023/11/22 09:01:38;;;;;;;0.10;0.10;;;11.20;81.00;;;;;;5018599;28;20512;-80
2023/11/22 09:04:04;;;;;;;0.10;0.10;;;11.30;80.70;;;;;;5018915;28;20026;-80
2023/11/22 09:06:30;;;;;;;0.40;0.40;;;11.40;80.30;;;;;;5000490;28;20029;-81
2023/11/22 09:08:56;;;;;;;0.60;0.60;;;11.50;80.40;;;;;;5001778;28;20040;-80
2023/11/22 09:11:22;;;;;;;0.82;0.82;;;11.60;80.30;;;;;;5019254;28;20029;-80
2023/11/22 09:13:50;;;;;;;0.40;0.40;;;11.80;80.20;;;;;;5012969;28;20015;-80
2023/11/22 09:16:16;;;;;;;0.20;0.20;;;11.90;79.60;;;;;;5001274;28;20033;-80
2023/11/22 09:18:42;;;;;;;0.22;0.22;;;12.20;79.50;;;;;;5019152;28;20096;-81
2023/11/22 09:21:09;;;;;;;0.98;0.98;;;12.30;79.00;;;;;;5019181;28;20028;-80
2023/11/22 09:23:38;;;;;;;0.10;0.10;;;12.50;78.20;;;;;;5000081;28;20037;-80
2023/11/22 09:26:05;;;;;;;0.10;0.10;;;12.70;77.30;;;;;;5017017;28;20029;-80
2023/11/22 09:28:31;;;;;;;0.10;0.10;;;12.60;77.60;;;;;;4996990;28;20062;-80
2023/11/22 09:31:05;;;;;;;0.10;0.10;;;12.40;77.70;;;;;;5008973;28;20047;-80
2023/11/22 09:33:31;;;;;;;0.10;0.10;;;12.30;78.00;;;;;;5016162;28;20014;-80
2023/11/22 09:36:03;;;;;;;0.10;0.10;;;12.30;77.80;;;;;;5018384;28;20026;-80
2023/11/22 09:38:29;;;;;;;0.10;0.10;;;12.30;78.00;;;;;;5018270;28;20026;-80
2023/11/22 09:40:56;;;;;;;0.10;0.10;;;12.20;78.30;;;;;;5000957;28;20433;-79
2023/11/22 09:43:24;;;;;;;0.10;0.10;;;12.20;78.40;;;;;;5000557;28;20465;-81
2023/11/22 09:45:50;;;;;;;0.10;0.10;;;12.20;78.30;;;;;;5017776;28;20061;-81
2023/11/22 09:48:17;;;;;;;0.10;0.10;;;12.20;78.80;;;;;;5018087;28;20029;-81
2023/11/22 09:50:45;;;;;;;0.10;0.10;;;12.30;78.90;;;;;;5013757;28;20062;-81
2023/11/22 09:53:25;;;;;;;0.10;0.10;;;12.50;78.70;;;;;;4998523;28;20106;-81
2023/11/22 09:55:52;;;;;;;0.10;0.10;;;12.70;78.10;;;;;;5000141;28;20065;-81
2023/11/22 09:58:20;;;;;;;0.10;0.10;;;12.90;78.00;;;;;;5007592;28;20109;-81
2023/11/22 10:00:47;;;;;;;0.10;0.10;;;13.00;77.70;;;;;;4998309;28;20444;-81
2023/11/22 10:03:14;;;;;;;0.10;0.10;;;13.00;77.40;;;;;;5018569;28;20030;-81
2023/11/22 10:05:43;;;;;;;0.10;0.10;;;13.00;77.30;;;;;;5033604;28;20034;-81
2023/11/22 10:08:09;;;;;;;0.10;0.10;;;12.90;77.10;;;;;;5000986;28;20018;-81
2023/11/22 10:10:36;;;;;;;0.10;0.10;;;12.80;77.70;;;;;;5000970;28;20064;-81
2023/11/22 10:13:03;;;;;;;0.10;0.10;;;12.80;77.40;;;;;;5009804;28;20421;-81
2023/11/22 10:15:29;;;;;;;0.10;0.10;;;12.70;77.40;;;;;;4998190;28;20061;-81
2023/11/22 10:18:02;;;;;;;0.10;0.10;;;12.70;77.80;;;;;;4997068;28;20061;-81
2023/11/22 10:20:39;;;;;;;0.10;0.10;;;12.80;77.60;;;;;;4996789;28;20106;-81
2023/11/22 10:23:14;;;;;;;0.10;0.10;;;12.80;77.40;;;;;;4998503;28;20458;-81
2023/11/22 10:25:49;;;;;;;0.10;0.10;;;12.90;77.30;;;;;;4978993;28;20037;-80
2023/11/22 10:28:27;;;;;;;0.10;0.10;;;13.20;77.20;;;;;;5012658;28;20029;-81
2023/11/22 10:30:53;;;;;;;0.10;0.10;;;13.40;76.40;;;;;;5010546;28;20583;-81
2023/11/22 10:33:22;;;;;;;0.10;0.10;;;13.40;76.20;;;;;;5002130;28;20077;-80
2023/11/22 10:35:51;;;;;;;0.10;0.10;;;13.30;76.20;;;;;;4996861;28;20022;-81
2023/11/22 10:38:17;;;;;;;0.10;0.10;;;13.20;76.50;;;;;;5011647;28;20037;-81
2023/11/22 10:40:47;;;;;;;0.10;0.10;;;13.20;76.50;;;;;;5017343;28;20378;-81
2023/11/22 10:43:16;;;;;;;0.10;0.10;;;13.20;76.40;;;;;;4984198;28;20047;-81
2023/11/22 10:45:48;;;;;;;0.10;0.10;;;13.10;76.60;;;;;;5001571;28;20129;-80
2023/11/22 10:48:18;;;;;;;0.10;0.10;;;13.10;76.30;;;;;;5006440;28;20022;-80
2023/11/22 10:50:45;;;;;;;0.10;0.10;;;13.20;76.40;;;;;;5014655;28;20028;-81
2023/11/22 10:53:20;;;;;;;0.10;0.10;;;13.10;76.00;;;;;;5001115;28;20054;-81
2023/11/22 10:55:47;;;;;;;0.10;0.10;;;13.20;76.40;;;;;;5003038;28;20025;-81
2023/11/22 10:58:15;;;;;;;0.10;0.10;;;13.30;76.00;;;;;;5017365;28;20064;-81
2023/11/22 11:00:43;;;;;;;0.10;0.10;;;13.40;75.90;;;;;;5016646;28;20025;-80
2023/11/22 11:03:14;;;;;;;0.10;0.10;;;13.60;75.20;;;;;;5017375;28;20523;-81
2023/11/22 11:05:47;;;;;;;0.10;0.10;;;13.70;75.20;;;;;;5029963;28;20025;-81
2023/11/22 11:08:16;;;;;;;0.10;0.10;;;13.70;74.60;;;;;;5015939;28;20033;-81
2023/11/22 11:10:43;;;;;;;0.10;0.10;;;13.70;74.70;;;;;;4997800;28;20029;-81
2023/11/22 11:13:10;;;;;;;0.10;0.10;;;13.60;74.90;;;;;;4998020;28;20033;-81
2023/11/22 11:15:37;;;;;;;0.10;0.10;;;13.50;74.30;;;;;;5001767;28;20033;-81
2023/11/22 11:18:05;;;;;;;0.10;0.10;;;13.30;74.80;;;;;;5015677;28;20033;-81
2023/11/22 11:20:56;;;;;;;0.10;0.10;;;13.20;75.40;;;;;;5016367;28;20022;-81
2023/11/22 11:23:24;;;;;;;0.10;0.10;;;13.10;75.30;;;;;;5032755;28;20029;-81
2023/11/22 11:25:52;;;;;;;0.10;0.10;;;13.10;75.70;;;;;;5012252;28;20521;-81
2023/11/22 11:28:18;;;;;;;0.10;0.10;;;13.20;75.80;;;;;;4995976;28;20030;-81
2023/11/22 11:30:48;;;;;;;0.10;0.10;;;13.20;75.60;;;;;;4999340;28;20398;-81
2023/11/22 11:33:17;;;;;;;0.10;0.10;;;13.40;75.80;;;;;;4998956;28;20025;-81
2023/11/22 11:35:49;;;;;;;0.10;0.10;;;13.50;74.50;;;;;;5016160;28;20056;-81
2023/11/22 11:38:18;;;;;;;0.10;0.10;;;13.40;74.60;;;;;;5017867;28;20105;-80
2023/11/22 11:40:48;;;;;;;0.10;0.10;;;13.50;75.00;;;;;;5016289;28;20030;-81
2023/11/22 11:43:14;;;;;;;0.10;0.10;;;13.60;74.70;;;;;;5000074;28;20342;-81
2023/11/22 11:45:45;;;;;;;0.10;0.10;;;13.80;74.00;;;;;;4998450;28;20025;-81
2023/11/22 11:48:16;;;;;;;0.10;0.10;;;14.00;73.30;;;;;;4999410;28;20029;-81
2023/11/22 11:50:42;;;;;;;0.10;0.10;;;14.10;73.30;;;;;;5010268;28;20038;-81
2023/11/22 11:53:11;;;;;;;0.00;0.00;;;14.00;73.50;;;;;;5004062;28;20034;-81
2023/11/22 11:55:37;;;;;;;0.10;0.10;;;13.80;72.50;;;;;;4996799;28;20494;-80
2023/11/22 11:58:09;;;;;;;0.10;0.10;;;13.70;72.60;;;;;;5000307;28;20030;-81
2023/11/22 12:00:35;;;;;;;0.10;0.10;;;13.60;72.70;;;;;;5017104;28;20105;-80
2023/11/22 12:03:03;;;;;;;0.10;0.10;;;13.50;73.20;;;;;;5016359;28;20029;-80
2023/11/22 12:05:29;;;;;;;0.10;0.10;;;13.40;73.30;;;;;;5016644;28;20030;-80
2023/11/22 12:07:55;;;;;;;0.10;0.10;;;13.50;72.90;;;;;;5033255;28;20040;-80
2023/11/22 12:10:21;;;;;;;0.10;0.10;;;13.40;73.00;;;;;;5019482;28;20041;-80
2023/11/22 12:12:47;;;;;;;0.10;0.10;;;13.30;73.30;;;;;;5012012;28;20069;-81
2023/11/22 12:15:14;;;;;;;0.10;0.10;;;13.40;73.10;;;;;;4997073;28;20101;-81
2023/11/22 12:17:40;;;;;;;0.10;0.10;;;13.40;73.30;;;;;;4995872;28;20037;-81
2023/11/22 12:20:17;;;;;;;0.10;0.10;;;13.60;73.20;;;;;;5011209;28;20034;-81
2023/11/22 12:22:44;;;;;;;0.10;0.10;;;13.60;72.90;;;;;;5016763;28;20026;-81
2023/11/22 12:25:12;;;;;;;0.10;0.10;;;13.70;72.30;;;;;;4999265;28;20022;-81
2023/11/22 12:27:47;;;;;;;0.10;0.10;;;14.00;72.10;;;;;;5015784;28;20036;-81
2023/11/22 12:30:48;;;;;;;0.10;0.10;;;14.00;71.20;;;;;;5016680;28;20041;-81
2023/11/22 12:33:17;;;;;;;0.10;0.10;;;13.80;71.20;;;;;;4917668;29;20492;-81
2023/11/22 12:35:44;;;;;;;0.10;0.10;;;13.60;70.30;;;;;;4979888;28;20046;-80
2023/11/22 12:38:09;;;;;;;0.10;0.10;;;13.50;71.00;;;;;;4997724;28;20025;-80
2023/11/22 12:40:35;;;;;;;0.00;0.00;;;13.40;71.90;;;;;;5016617;28;20101;-80
2023/11/22 12:43:03;;;;;;;0.10;0.10;;;13.40;71.70;;;;;;5016338;28;20054;-81
2023/11/22 12:45:30;;;;;;;0.10;0.10;;;13.40;72.10;;;;;;5016378;28;20080;-80
2023/11/22 12:47:58;;;;;;;0.10;0.10;;;13.40;72.60;;;;;;4999302;28;20037;-81
2023/11/22 12:50:35;;;;;;;0.10;0.10;;;13.50;72.80;;;;;;4998660;28;20027;-81
2023/11/22 12:53:14;;;;;;;0.10;0.10;;;13.50;72.10;;;;;;5000043;28;20026;-81
2023/11/22 12:55:45;;;;;;;0.10;0.10;;;13.50;71.70;;;;;;5013129;28;20026;-83
2023/11/22 12:58:11;;;;;;;0.10;0.10;;;13.70;71.70;;;;;;5000602;28;20034;-80
2023/11/22 13:00:39;;;;;;;0.10;0.10;;;13.80;70.90;;;;;;5018819;28;20025;-82
2023/11/22 13:03:10;;;;;;;0.10;0.10;;;13.90;69.70;;;;;;5019765;28;20037;-83
2023/11/22 13:05:42;;;;;;;0.10;0.10;;;13.90;69.60;;;;;;5013882;28;20025;-85
2023/11/22 13:08:12;;;;;;;0.10;0.10;;;14.00;69.70;;;;;;4996240;28;20038;-84
2023/11/22 13:10:53;;;;;;;0.10;0.10;;;14.10;69.50;;;;;;5014452;28;20025;-85
2023/11/22 13:13:21;;;;;;;0.10;0.10;;;14.10;68.80;;;;;;5002783;28;20026;-85
2023/11/22 13:15:47;;;;;;;0.10;0.10;;;14.00;68.70;;;;;;5017183;28;20030;-85
2023/11/22 13:18:13;;;;;;;0.10;0.10;;;14.00;69.30;;;;;;5001702;28;20060;-86
2023/11/22 13:20:40;;;;;;;0.10;0.10;;;14.10;69.20;;;;;;5016214;28;20025;-86
2023/11/22 13:23:07;;;;;;;0.10;0.10;;;14.00;68.50;;;;;;5017714;28;20066;-86
2023/11/22 13:25:33;;;;;;;0.10;0.10;;;14.10;69.00;;;;;;5016274;28;20552;-87
2023/11/22 13:27:59;;;;;;;0.10;0.10;;;14.00;68.70;;;;;;5018366;28;20122;-86
2023/11/22 13:30:26;;;;;;;0.10;0.10;;;13.90;69.10;;;;;;5017936;28;20026;-86
2023/11/22 13:32:53;;;;;;;0.10;0.10;;;13.80;68.80;;;;;;5024540;28;20042;-86
2023/11/22 13:35:19;;;;;;;0.10;0.10;;;13.80;69.20;;;;;;5008129;28;20072;-85
2023/11/22 13:37:46;;;;;;;0.10;0.10;;;13.70;69.80;;;;;;5016461;28;20054;-86
2023/11/22 13:40:14;;;;;;;0.10;0.10;;;13.70;69.80;;;;;;5010270;28;20033;-85
2023/11/22 13:42:52;;;;;;;0.10;0.10;;;13.60;69.10;;;;;;5004280;28;20029;-86
2023/11/22 13:45:18;;;;;;;0.10;0.10;;;13.60;69.50;;;;;;5017812;28;20088;-85
2023/11/22 13:47:46;;;;;;;0.10;0.10;;;13.50;68.50;;;;;;5005900;28;20121;-86
2023/11/22 13:50:14;;;;;;;0.10;0.10;;;13.60;68.20;;;;;;5004804;28;20105;-86
2023/11/22 13:52:40;;;;;;;0.10;0.10;;;13.70;67.40;;;;;;5010759;28;20065;-85
2023/11/22 13:55:09;;;;;;;0.10;0.10;;;13.70;67.40;;;;;;5007888;28;20029;-85
2023/11/22 13:57:35;;;;;;;0.10;0.10;;;13.80;67.80;;;;;;5006155;28;20112;-85
2023/11/22 14:00:02;;;;;;;0.10;0.10;;;13.80;66.80;;;;;;5018419;28;20061;-85
2023/11/22 14:02:28;;;;;;;0.00;0.00;;;13.90;67.20;;;;;;5001789;28;20029;-86
2023/11/22 14:04:53;;;;;;;0.10;0.10;;;13.90;66.10;;;;;;5014492;28;20022;-87
2023/11/22 14:07:19;;;;;;;0.10;0.10;;;13.80;66.90;;;;;;5017674;28;20109;-86
2023/11/22 14:09:46;;;;;;;0.10;0.10;;;13.70;66.60;;;;;;5017731;28;20064;-87
2023/11/22 14:12:12;;;;;;;0.10;0.10;;;13.80;67.00;;;;;;5006439;28;20038;-87
2023/11/22 14:14:38;;;;;;;0.10;0.10;;;13.80;66.80;;;;;;5002996;28;20033;-86
2023/11/22 14:17:03;;;;;;;0.10;0.10;;;13.80;66.30;;;;;;5006224;28;20084;-87
2023/11/22 14:19:29;;;;;;;0.10;0.10;;;13.80;65.10;;;;;;5017518;28;20014;-87
2023/11/22 14:21:55;;;;;;;0.10;0.10;;;13.70;64.60;;;;;;5017699;28;20037;-87
2023/11/22 14:24:20;;;;;;;0.10;0.10;;;13.70;64.60;;;;;;5017860;28;20049;-87
2023/11/22 14:26:48;;;;;;;0.10;0.10;;;13.70;64.70;;;;;;5016979;28;20501;-86
2023/11/22 14:29:14;;;;;;;0.10;0.10;;;13.70;65.00;;;;;;5015192;28;20026;-88
2023/11/22 14:31:41;;;;;;;0.10;0.10;;;13.70;65.50;;;;;;5007781;28;20053;-87
2023/11/22 14:34:06;;;;;;;0.10;0.10;;;13.70;66.10;;;;;;5004493;28;20112;-87
2023/11/22 14:36:32;;;;;;;0.10;0.10;;;13.70;65.80;;;;;;5018331;28;20046;-84
2023/11/22 14:38:58;;;;;;;0.10;0.10;;;13.70;64.70;;;;;;4999728;28;20026;-89
2023/11/22 14:41:24;;;;;;;0.10;0.10;;;13.60;65.10;;;;;;5017748;28;20026;-89
2023/11/22 14:43:49;;;;;;;0.10;0.10;;;13.60;65.30;;;;;;5002732;28;20544;-88
2023/11/22 14:46:15;;;;;;;0.10;0.10;;;13.50;65.50;;;;;;5001427;28;20121;-89
2023/11/22 14:48:41;;;;;;;0.10;0.10;;;13.50;66.10;;;;;;5016516;28;20030;-91
2023/11/22 14:51:09;;;;;;;0.13;0.10;;;13.50;66.60;;;;;;5003098;28;20041;-91
2023/11/22 14:53:34;;;;;;;0.10;0.10;;;13.50;67.30;;;;;;5005039;28;20045;-91
2023/11/22 14:56:01;;;;;;;0.10;0.10;;;13.40;67.70;;;;;;5002068;28;20022;-91
2023/11/22 14:58:26;;;;;;;0.10;0.10;;;13.40;66.90;;;;;;4999589;28;20037;-91
2023/11/22 15:00:52;;;;;;;0.10;0.10;;;13.30;67.30;;;;;;5002434;28;20033;-90
2023/11/22 15:03:18;;;;;;;0.10;0.10;;;13.30;67.20;;;;;;5008590;28;20018;-92
2023/11/22 15:05:43;;;;;;;0.10;0.10;;;13.20;67.40;;;;;;4996448;28;20034;-91
2023/11/22 15:08:09;;;;;;;0.00;0.00;;;13.20;67.60;;;;;;4996850;28;20123;-90
2023/11/22 15:10:34;;;;;;;0.10;0.10;;;13.10;67.90;;;;;;5004246;28;20382;-87
2023/11/22 15:13:02;;;;;;;0.10;0.10;;;13.10;68.10;;;;;;4990698;28;20044;-90
2023/11/22 15:15:27;;;;;;;0.00;0.00;;;13.00;68.30;;;;;;4999584;28;20489;-91
2023/11/22 15:17:53;;;;;;;0.10;0.10;;;13.00;68.70;;;;;;4996798;28;20072;-82
2023/11/22 15:20:19;;;;;;;0.10;0.10;;;13.00;68.40;;;;;;5001222;28;20034;-91
2023/11/22 15:22:45;;;;;;;0.00;0.00;;;12.80;69.40;;;;;;5006984;28;20018;-90
2023/11/22 15:25:11;;;;;;;0.10;0.10;;;12.80;69.40;;;;;;5000413;28;20040;-89
2023/11/22 15:27:37;;;;;;;0.10;0.10;;;12.80;70.00;;;;;;5016926;28;20030;-88
2023/11/22 15:30:03;;;;;;;0.10;0.10;;;12.80;70.30;;;;;;5012514;28;20021;-90
2023/11/22 15:32:29;;;;;;;0.10;0.10;;;12.70;70.70;;;;;;4996994;28;20073;-88
2023/11/22 15:34:54;;;;;;;0.10;0.10;;;12.60;70.70;;;;;;4990434;28;20037;-88
2023/11/22 15:37:20;;;;;;;0.10;0.10;;;12.60;71.20;;;;;;4994644;28;20093;-89
2023/11/22 15:39:55;;;;;;;0.08;0.08;;;12.50;71.50;;;;;;5012826;28;20086;-88
2023/11/22 15:42:21;;;;;;;0.05;0.05;;;12.50;71.30;;;;;;4998077;28;20038;-88
2023/11/22 15:44:46;;;;;;;0.10;0.10;;;12.50;71.40;;;;;;5013400;28;20034;-89
2023/11/22 15:47:13;;;;;;;0.10;0.10;;;12.40;71.50;;;;;;4996569;28;20079;-88
2023/11/22 15:49:38;;;;;;;0.10;0.10;;;12.40;71.80;;;;;;4995031;28;20022;-88
2023/11/22 15:52:04;;;;;;;0.10;0.10;;;12.40;71.50;;;;;;4993424;28;20025;-89
2023/11/22 15:54:30;;;;;;;0.10;0.10;;;12.40;71.80;;;;;;4988153;28;20370;-89
2023/11/22 15:57:04;;;;;;;0.10;0.10;;;12.30;71.60;;;;;;5014645;28;20026;-88
2023/11/22 15:59:30;;;;;;;0.00;0.00;;;12.30;71.80;;;;;;4998671;28;20064;-89
2023/11/22 16:01:55;;;;;;;0.10;0.10;;;12.30;72.60;;;;;;4995869;28;20025;-89
2023/11/22 16:04:21;;;;;;;0.00;0.00;;;12.30;72.60;;;;;;5011847;28;20400;-89
2023/11/22 16:06:48;;;;;;;0.10;0.10;;;12.20;73.10;;;;;;4994394;28;20088;-88
2023/11/22 16:09:14;;;;;;;0.10;0.10;;;12.20;73.30;;;;;;5006876;28;20113;-89
2023/11/22 16:11:40;;;;;;;0.10;0.10;;;12.20;73.00;;;;;;4984312;28;20026;-86
2023/11/22 16:14:06;;;;;;;0.10;0.10;;;12.10;73.50;;;;;;4985598;28;20037;-81
2023/11/22 16:16:32;;;;;;;0.10;0.10;;;12.00;73.80;;;;;;5014455;28;20030;-89
2023/11/22 16:18:58;;;;;;;0.10;0.10;;;12.00;73.90;;;;;;5014824;28;20444;-87
2023/11/22 16:21:24;;;;;;;0.10;0.10;;;12.00;73.80;;;;;;5012239;28;20018;-88
2023/11/22 16:23:50;;;;;;;0.00;0.00;;;11.90;73.60;;;;;;4987761;28;20053;-88
2023/11/22 16:26:17;;;;;;;0.05;0.05;;;11.90;73.90;;;;;;5010315;28;20014;-87
2023/11/22 16:28:43;;;;;;;0.00;0.00;;;11.90;73.80;;;;;;5010610;28;20624;-88
2023/11/22 16:31:11;;;;;;;0.10;0.10;;;11.80;73.40;;;;;;5012708;28;20165;-89
2023/11/22 16:33:37;;;;;;;0.10;0.10;;;11.80;74.30;;;;;;4995266;28;20164;-88
2023/11/22 16:36:02;;;;;;;0.10;0.10;;;11.70;74.50;;;;;;4997287;28;20057;-88
2023/11/22 16:38:28;;;;;;;0.10;0.10;;;11.60;75.00;;;;;;5002136;28;20040;-89
2023/11/22 16:40:54;;;;;;;0.10;0.10;;;11.60;75.20;;;;;;5002081;28;20065;-88
2023/11/22 16:43:20;;;;;;;0.10;0.10;;;11.60;75.20;;;;;;5001409;28;20053;-89
2023/11/22 16:45:51;;;;;;;0.00;0.00;;;11.40;75.80;;;;;;5017816;28;20033;-89
2023/11/22 16:48:17;;;;;;;0.10;0.10;;;11.30;76.00;;;;;;5002067;28;20034;-87
2023/11/22 16:50:43;;;;;;;0.10;0.10;;;11.30;75.80;;;;;;5020024;28;20030;-88
2023/11/22 16:53:10;;;;;;;0.10;0.10;;;11.30;76.20;;;;;;5011193;28;20876;-88
2023/11/22 16:55:36;;;;;;;0.10;0.10;;;11.20;76.50;;;;;;5000730;28;20022;-88
2023/11/22 16:58:02;;;;;;;0.10;0.10;;;11.10;77.30;;;;;;4999711;28;20551;-88
2023/11/22 17:00:29;;;;;;;0.10;0.10;;;11.00;77.70;;;;;;4997383;28;20025;-88
2023/11/22 17:02:59;;;;;;;0.10;0.10;;;10.90;77.20;;;;;;4997862;28;20025;-88
2023/11/22 17:05:24;;;;;;;0.10;0.10;;;10.90;77.40;;;;;;5013552;28;20036;-88
2023/11/22 17:07:50;;;;;;;0.10;0.10;;;10.90;77.10;;;;;;5014529;28;20038;-88
2023/11/22 17:10:17;;;;;;;0.10;0.10;;;10.90;77.40;;;;;;4996195;28;20027;-88
2023/11/22 17:12:42;;;;;;;0.10;0.10;;;10.90;77.40;;;;;;4999823;28;20026;-88
2023/11/22 17:15:09;;;;;;;0.00;0.00;;;10.90;77.70;;;;;;5018333;28;20037;-88
2023/11/22 17:17:35;;;;;;;0.10;0.10;;;10.80;78.00;;;;;;5008091;28;20069;-88
2023/11/22 17:20:04;;;;;;;0.00;0.00;;;10.80;77.90;;;;;;4996312;28;20033;-79
2023/11/22 17:22:30;;;;;;;0.10;0.10;;;10.80;77.90;;;;;;5017076;28;20029;-85
2023/11/22 17:24:57;;;;;;;0.10;0.10;;;10.80;78.00;;;;;;5016941;28;20018;-82
2023/11/22 17:27:23;;;;;;;0.00;0.00;;;10.70;78.30;;;;;;5004571;28;20033;-84
2023/11/22 17:29:50;;;;;;;0.10;0.10;;;10.60;78.30;;;;;;5016472;28;20551;-78
2023/11/22 17:32:17;;;;;;;0.10;0.10;;;10.60;78.60;;;;;;5016586;28;20046;-90
2023/11/22 17:34:43;;;;;;;0.10;0.10;;;10.50;78.60;;;;;;5003756;28;20026;-82
2023/11/22 17:37:09;;;;;;;0.10;0.10;;;10.50;78.50;;;;;;5001989;28;20408;-88
2023/11/22 17:39:34;;;;;;;0.10;0.10;;;10.50;78.60;;;;;;4993539;28;20033;-82
2023/11/22 17:42:00;;;;;;;0.10;0.10;;;10.40;78.70;;;;;;5014397;28;20029;-83
2023/11/22 17:44:26;;;;;;;0.10;0.10;;;10.30;78.80;;;;;;5016490;28;20104;-82
2023/11/22 17:46:52;;;;;;;0.10;0.10;;;10.30;78.70;;;;;;5015849;28;20034;-81
2023/11/22 17:49:18;;;;;;;0.10;0.10;;;10.30;78.70;;;;;;5015841;28;20056;-83
2023/11/22 17:51:46;;;;;;;0.10;0.10;;;10.30;78.70;;;;;;5004820;28;20125;-87
2023/11/22 17:54:11;;;;;;;0.00;0.00;;;10.20;79.30;;;;;;4999005;28;20036;-88
2023/11/22 17:56:37;;;;;;;0.10;0.10;;;10.10;79.40;;;;;;4996856;28;20543;-89
2023/11/22 17:59:03;;;;;;;0.10;0.10;;;10.10;79.50;;;;;;5000218;28;20622;-87
2023/11/22 18:01:30;;;;;;;0.10;0.10;;;10.10;79.80;;;;;;5012299;28;20061;-87
2023/11/22 18:03:55;;;;;;;0.10;0.10;;;10.10;79.70;;;;;;4998665;28;20089;-82
2023/11/22 18:06:21;;;;;;;0.10;0.10;;;10.00;79.90;;;;;;5012212;28;20572;-81
2023/11/22 18:08:46;;;;;;;0.10;0.10;;;10.10;79.80;;;;;;5013710;28;20156;-81
2023/11/22 18:11:12;;;;;;;0.10;0.10;;;10.00;79.90;;;;;;5016149;28;20406;-78
2023/11/22 18:13:38;;;;;;;0.10;0.10;;;10.10;80.00;;;;;;5019061;28;20028;-87
2023/11/22 18:16:05;;;;;;;0.10;0.10;;;10.00;80.10;;;;;;5007633;28;20014;-78
2023/11/22 18:18:31;;;;;;;0.10;0.10;;;9.90;80.30;;;;;;5016184;28;20026;-78